sensor_id;sensor_type;location;lat;lon;timestamp;pressure;altitude;pressure_sealevel;temperature;humidity
8697;BME280;4385;48.848;8.924;2022-11-20T00:00:04;96864.34;;;17.48;100.00
8697;BME280;4385;48.848;8.924;2022-11-20T00:02:29;96867.78;;;17.47;100.00
8697;BME280;4385;48.848;8.924;2022-11-20T00:04:55;96862.72;;;17.45;100.00
8697;BME280;4385;48.848;8.924;2022-11-20T00:07:20;96861.94;;;17.43;100.00
8697;BME280;4385;48.848;8.924;2022-11-20T00:09:45;96857.69;;;17.43;100.00
8697;BME280;4385;48.848;8.924;2022-11-20T00:12:11;96852.63;;;17.42;100.00
8697;BME280;4385;48.848;8.924;2022-11-20T00:14:36;96856.06;;;17.41;100.00
8697;BME280;4385;48.848;8.924;2022-11-20T00:17:01;96858.66;;;17.39;100.00
8697;BME280;4385;48.848;8.924;2022-11-20T00:19:26;96862.00;;;17.40;100.00
8697;BME280;4385;48.848;8.924;2022-11-20T00:21:52;96856.97;;;17.38;100.00
8697;BME280;4385;48.848;8.924;2022-11-20T00:24:18;96862.94;;;17.37;100.00
8697;BME280;4385;48.848;8.924;2022-11-20T00:26:44;96857.00;;;17.37;100.00
8697;BME280;4385;48.848;8.924;2022-11-20T00:29:09;96859.56;;;17.37;100.00
8697;BME280;4385;48.848;8.924;2022-11-20T00:31:35;96864.66;;;17.37;100.00
8697;BME280;4385;48.848;8.924;2022-11-20T00:34:00;96854.50;;;17.35;100.00
8697;BME280;4385;48.848;8.924;2022-11-20T00:36:28;96856.25;;;17.35;100.00
8697;BME280;4385;48.848;8.924;2022-11-20T00:38:57;96858.78;;;17.35;100.00
8697;BME280;4385;48.848;8.924;2022-11-20T00:41:24;96858.78;;;17.35;100.00
8697;BME280;4385;48.848;8.924;2022-11-20T00:43:52;96853.72;;;17.33;100.00
8697;BME280;4385;48.848;8.924;2022-11-20T00:46:23;96858.88;;;17.31;100.00
8697;BME280;4385;48.848;8.924;2022-11-20T00:48:49;96852.97;;;17.29;100.00
8697;BME280;4385;48.848;8.924;2022-11-20T00:51:18;96856.41;;;17.28;100.00
8697;BME280;4385;48.848;8.924;2022-11-20T00:53:44;96867.41;;;17.29;100.00
8697;BME280;4385;48.848;8.924;2022-11-20T00:56:11;96863.19;;;17.28;100.00
8697;BME280;4385;48.848;8.924;2022-11-20T00:58:39;96869.22;;;17.25;100.00
8697;BME280;4385;48.848;8.924;2022-11-20T01:01:09;96866.63;;;17.27;100.00
8697;BME280;4385;48.848;8.924;2022-11-20T01:03:39;96870.06;;;17.24;100.00
8697;BME280;4385;48.848;8.924;2022-11-20T01:06:09;96874.34;;;17.24;100.00
8697;BME280;4385;48.848;8.924;2022-11-20T01:08:36;96872.72;;;17.21;100.00
8697;BME280;4385;48.848;8.924;2022-11-20T01:11:03;96871.00;;;17.22;100.00
8697;BME280;4385;48.848;8.924;2022-11-20T01:13:30;96873.56;;;17.22;100.00
8697;BME280;4385;48.848;8.924;2022-11-20T01:16:16;96869.34;;;17.20;100.00
8697;BME280;4385;48.848;8.924;2022-11-20T01:18:44;96877.78;;;17.21;100.00
8697;BME280;4385;48.848;8.924;2022-11-20T01:21:19;96870.19;;;17.19;100.00
8697;BME280;4385;48.848;8.924;2022-11-20T01:23:46;96874.53;;;17.17;100.00
8697;BME280;4385;48.848;8.924;2022-11-20T01:26:15;96876.19;;;17.18;100.00
8697;BME280;4385;48.848;8.924;2022-11-20T01:28:41;96873.69;;;17.17;100.00
8697;BME280;4385;48.848;8.924;2022-11-20T01:31:19;96880.47;;;17.16;100.00
8697;BME280;4385;48.848;8.924;2022-11-20T01:33:46;96880.47;;;17.16;100.00
8697;BME280;4385;48.848;8.924;2022-11-20T01:36:13;96875.41;;;17.15;100.00
8697;BME280;4385;48.848;8.924;2022-11-20T01:38:40;96883.00;;;17.16;100.00
8697;BME280;4385;48.848;8.924;2022-11-20T01:41:06;96875.28;;;17.19;100.00
8697;BME280;4385;48.848;8.924;2022-11-20T01:43:32;96873.59;;;17.20;100.00
8697;BME280;4385;48.848;8.924;2022-11-20T01:46:17;96873.72;;;17.15;100.00
8697;BME280;4385;48.848;8.924;2022-11-20T01:51:24;96872.00;;;17.16;100.00
8697;BME280;4385;48.848;8.924;2022-11-20T01:53:53;96868.66;;;17.14;100.00
8697;BME280;4385;48.848;8.924;2022-11-20T01:56:19;96868.59;;;17.17;100.00
8697;BME280;4385;48.848;8.924;2022-11-20T01:58:48;96874.56;;;17.16;100.00
8697;BME280;4385;48.848;8.924;2022-11-20T02:01:16;96880.50;;;17.15;100.00
8697;BME280;4385;48.848;8.924;2022-11-20T02:03:43;96870.41;;;17.12;100.00
8697;BME280;4385;48.848;8.924;2022-11-20T02:06:14;96868.75;;;17.11;100.00
8697;BME280;4385;48.848;8.924;2022-11-20T02:08:41;96875.56;;;17.08;100.00
8697;BME280;4385;48.848;8.924;2022-11-20T02:11:07;96870.47;;;17.08;100.00
8697;BME280;4385;48.848;8.924;2022-11-20T02:13:33;96875.59;;;17.07;100.00
8697;BME280;4385;48.848;8.924;2022-11-20T02:16:27;96875.66;;;17.04;100.00
8697;BME280;4385;48.848;8.924;2022-11-20T02:18:55;96870.63;;;17.02;100.00
8697;BME280;4385;48.848;8.924;2022-11-20T02:21:42;96877.47;;;17.00;100.00
8697;BME280;4385;48.848;8.924;2022-11-20T02:24:21;96879.13;;;17.01;100.00
8697;BME280;4385;48.848;8.924;2022-11-20T02:26:49;96880.88;;;16.99;100.00
8697;BME280;4385;48.848;8.924;2022-11-20T02:29:23;96872.47;;;16.97;100.00
8697;BME280;4385;48.848;8.924;2022-11-20T02:31:51;96880.97;;;16.96;100.00
8697;BME280;4385;48.848;8.924;2022-11-20T02:34:16;96873.28;;;16.98;100.00
8697;BME280;4385;48.848;8.924;2022-11-20T02:36:42;96875.06;;;16.95;100.00
8697;BME280;4385;48.848;8.924;2022-11-20T02:39:09;96878.50;;;16.93;100.00
8697;BME280;4385;48.848;8.924;2022-11-20T02:41:37;96882.81;;;16.91;100.00
8697;BME280;4385;48.848;8.924;2022-11-20T02:44:04;96887.09;;;16.89;100.00
8697;BME280;4385;48.848;8.924;2022-11-20T02:46:30;96886.25;;;16.88;100.00
8697;BME280;4385;48.848;8.924;2022-11-20T02:48:56;96882.00;;;16.89;100.00
8697;BME280;4385;48.848;8.924;2022-11-20T02:51:21;96871.84;;;16.87;100.00
8697;BME280;4385;48.848;8.924;2022-11-20T02:53:47;96876.09;;;16.87;100.00
8697;BME280;4385;48.848;8.924;2022-11-20T02:56:12;96869.34;;;16.86;100.00
8697;BME280;4385;48.848;8.924;2022-11-20T02:58:37;96876.09;;;16.87;100.00
8697;BME280;4385;48.848;8.924;2022-11-20T03:01:03;96877.00;;;16.86;100.00
8697;BME280;4385;48.848;8.924;2022-11-20T03:03:28;96877.88;;;16.85;100.00
8697;BME280;4385;48.848;8.924;2022-11-20T03:05:53;96875.31;;;16.85;100.00
8697;BME280;4385;48.848;8.924;2022-11-20T03:08:18;96871.09;;;16.83;100.00
8697;BME280;4385;48.848;8.924;2022-11-20T03:10:44;96868.53;;;16.83;100.00
8697;BME280;4385;48.848;8.924;2022-11-20T03:13:09;96862.59;;;16.85;100.00
8697;BME280;4385;48.848;8.924;2022-11-20T03:15:36;96869.66;;;17.40;100.00
8697;BME280;4385;48.848;8.924;2022-11-20T03:18:01;96866.50;;;17.31;100.00
8697;BME280;4385;48.848;8.924;2022-11-20T03:20:26;96866.91;;;17.16;100.00
8697;BME280;4385;48.848;8.924;2022-11-20T03:22:53;96858.66;;;17.07;100.00
8697;BME280;4385;48.848;8.924;2022-11-20T03:25:19;96858.69;;;17.04;100.00
8697;BME280;4385;48.848;8.924;2022-11-20T03:27:44;96861.25;;;17.04;100.00
8697;BME280;4385;48.848;8.924;2022-11-20T03:30:09;96854.44;;;17.05;100.00
8697;BME280;4385;48.848;8.924;2022-11-20T03:32:35;96860.63;;;16.94;100.00
8697;BME280;4385;48.848;8.924;2022-11-20T03:35:00;96864.09;;;16.92;100.00
8697;BME280;4385;48.848;8.924;2022-11-20T03:37:25;96862.44;;;16.91;100.00
8697;BME280;4385;48.848;8.924;2022-11-20T03:39:51;96858.28;;;16.87;100.00
8697;BME280;4385;48.848;8.924;2022-11-20T03:42:16;96852.44;;;16.85;100.00
8697;BME280;4385;48.848;8.924;2022-11-20T03:44:59;96854.16;;;16.82;100.00
8697;BME280;4385;48.848;8.924;2022-11-20T03:47:25;96855.88;;;16.82;100.00
8697;BME280;4385;48.848;8.924;2022-11-20T03:49:50;96853.34;;;16.80;100.00
8697;BME280;4385;48.848;8.924;2022-11-20T03:52:15;96852.59;;;16.78;100.00
8697;BME280;4385;48.848;8.924;2022-11-20T03:54:41;96852.59;;;16.78;100.00
8697;BME280;4385;48.848;8.924;2022-11-20T03:57:06;96849.22;;;16.76;100.00
8697;BME280;4385;48.848;8.924;2022-11-20T03:59:31;96845.03;;;16.75;100.00
8697;BME280;4385;48.848;8.924;2022-11-20T04:01:59;96852.66;;;16.75;100.00
8697;BME280;4385;48.848;8.924;2022-11-20T04:04:25;96853.47;;;16.76;100.00
8697;BME280;4385;48.848;8.924;2022-11-20T04:06:50;96847.56;;;16.75;100.00
8697;BME280;4385;48.848;8.924;2022-11-20T04:09:15;96849.28;;;16.75;100.00
8697;BME280;4385;48.848;8.924;2022-11-20T04:11:40;96847.59;;;16.74;100.00
8697;BME280;4385;48.848;8.924;2022-11-20T04:14:14;96847.66;;;16.72;100.00
8697;BME280;4385;48.848;8.924;2022-11-20T04:16:40;96850.22;;;16.70;100.00
8697;BME280;4385;48.848;8.924;2022-11-20T04:19:09;96851.09;;;16.69;100.00
8697;BME280;4385;48.848;8.924;2022-11-20T04:21:35;96845.97;;;16.71;100.00
8697;BME280;4385;48.848;8.924;2022-11-20T04:24:01;96847.66;;;16.72;100.00
8697;BME280;4385;48.848;8.924;2022-11-20T04:26:28;96849.31;;;16.73;100.00
8697;BME280;4385;48.848;8.924;2022-11-20T04:28:54;96834.09;;;16.72;100.00
8697;BME280;4385;48.848;8.924;2022-11-20T04:31:22;96834.13;;;16.70;100.00
8697;BME280;4385;48.848;8.924;2022-11-20T04:33:48;96841.75;;;16.70;100.00
8697;BME280;4385;48.848;8.924;2022-11-20T04:36:24;96837.56;;;16.69;100.00
8697;BME280;4385;48.848;8.924;2022-11-20T04:38:55;96831.59;;;16.70;100.00
8697;BME280;4385;48.848;8.924;2022-11-20T04:41:22;96831.63;;;16.68;100.00
8697;BME280;4385;48.848;8.924;2022-11-20T04:43:49;96832.53;;;16.66;100.00
8697;BME280;4385;48.848;8.924;2022-11-20T04:46:18;96835.13;;;16.64;100.00
8697;BME280;4385;48.848;8.924;2022-11-20T04:48:44;96834.28;;;16.64;100.00
8697;BME280;4385;48.848;8.924;2022-11-20T04:51:10;96838.56;;;16.62;100.00
8697;BME280;4385;48.848;8.924;2022-11-20T04:53:35;96832.66;;;16.61;100.00
8697;BME280;4385;48.848;8.924;2022-11-20T04:56:06;96834.41;;;16.59;100.00
8697;BME280;4385;48.848;8.924;2022-11-20T04:58:31;96840.38;;;16.58;100.00
8697;BME280;4385;48.848;8.924;2022-11-20T05:01:09;96836.09;;;16.58;100.00
8697;BME280;4385;48.848;8.924;2022-11-20T05:03:35;96834.41;;;16.59;100.00
8697;BME280;4385;48.848;8.924;2022-11-20T05:06:02;96837.00;;;16.56;100.00
8697;BME280;4385;48.848;8.924;2022-11-20T05:08:29;96834.44;;;16.57;100.00
8697;BME280;4385;48.848;8.924;2022-11-20T05:11:09;96831.00;;;16.58;100.00
8697;BME280;4385;48.848;8.924;2022-11-20T05:13:35;96830.19;;;16.58;100.00
8697;BME280;4385;48.848;8.924;2022-11-20T05:16:05;96831.00;;;16.58;100.00
8697;BME280;4385;48.848;8.924;2022-11-20T05:18:31;96830.16;;;16.60;100.00
8697;BME280;4385;48.848;8.924;2022-11-20T05:20:57;96837.84;;;16.56;100.00
8697;BME280;4385;48.848;8.924;2022-11-20T05:23:23;96832.72;;;16.58;100.00
8697;BME280;4385;48.848;8.924;2022-11-20T05:25:52;96841.25;;;16.55;100.00
8697;BME280;4385;48.848;8.924;2022-11-20T05:28:17;96837.06;;;16.54;100.00
8697;BME280;4385;48.848;8.924;2022-11-20T05:30:42;96829.41;;;16.54;100.00
8697;BME280;4385;48.848;8.924;2022-11-20T05:33:07;96837.06;;;16.54;100.00
8697;BME280;4385;48.848;8.924;2022-11-20T05:35:33;96842.19;;;16.53;100.00
8697;BME280;4385;48.848;8.924;2022-11-20T05:37:58;96837.94;;;16.53;100.00
8697;BME280;4385;48.848;8.924;2022-11-20T05:40:23;96841.34;;;16.52;100.00
8697;BME280;4385;48.848;8.924;2022-11-20T05:42:48;96836.25;;;16.52;100.00
8697;BME280;4385;48.848;8.924;2022-11-20T05:45:14;96836.25;;;16.52;100.00
8697;BME280;4385;48.848;8.924;2022-11-20T05:47:39;96831.16;;;16.52;100.00
8697;BME280;4385;48.848;8.924;2022-11-20T05:50:04;96840.47;;;16.53;100.00
8697;BME280;4385;48.848;8.924;2022-11-20T05:52:30;96835.38;;;16.53;100.00
8697;BME280;4385;48.848;8.924;2022-11-20T05:54:55;96837.97;;;16.52;100.00
8697;BME280;4385;48.848;8.924;2022-11-20T05:57:21;96832.03;;;16.51;100.00
8697;BME280;4385;48.848;8.924;2022-11-20T05:59:46;96835.47;;;16.50;100.00
8697;BME280;4385;48.848;8.924;2022-11-20T06:02:11;96830.41;;;16.49;100.00
8697;BME280;4385;48.848;8.924;2022-11-20T06:04:37;96833.78;;;16.49;100.00
8697;BME280;4385;48.848;8.924;2022-11-20T06:07:02;96838.00;;;16.50;100.00
8697;BME280;4385;48.848;8.924;2022-11-20T06:09:27;96832.13;;;16.48;100.00
8697;BME280;4385;48.848;8.924;2022-11-20T06:11:53;96833.00;;;16.47;100.00
8697;BME280;4385;48.848;8.924;2022-11-20T06:14:18;96835.56;;;16.45;100.00
8697;BME280;4385;48.848;8.924;2022-11-20T06:16:43;96831.31;;;16.46;100.00
8697;BME280;4385;48.848;8.924;2022-11-20T06:19:09;96832.19;;;16.45;100.00
8697;BME280;4385;48.848;8.924;2022-11-20T06:21:34;96828.81;;;16.44;100.00
8697;BME280;4385;48.848;8.924;2022-11-20T06:23:59;96830.50;;;16.45;100.00
8697;BME280;4385;48.848;8.924;2022-11-20T06:26:27;96827.09;;;16.45;100.00
8697;BME280;4385;48.848;8.924;2022-11-20T06:28:53;96827.09;;;16.45;100.00
8697;BME280;4385;48.848;8.924;2022-11-20T06:31:21;96822.91;;;16.44;100.00
8697;BME280;4385;48.848;8.924;2022-11-20T06:33:46;96828.00;;;16.44;100.00
8697;BME280;4385;48.848;8.924;2022-11-20T06:36:15;96829.66;;;16.45;100.00
8697;BME280;4385;48.848;8.924;2022-11-20T06:38:41;96833.00;;;16.47;100.00
8697;BME280;4385;48.848;8.924;2022-11-20T06:41:11;96830.41;;;16.49;100.00
8697;BME280;4385;48.848;8.924;2022-11-20T06:43:36;96831.16;;;16.52;100.00
8697;BME280;4385;48.848;8.924;2022-11-20T06:46:02;96836.97;;;16.57;100.00
8697;BME280;4385;48.848;8.924;2022-11-20T06:48:28;96838.59;;;16.60;100.00
8697;BME280;4385;48.848;8.924;2022-11-20T06:50:54;96835.09;;;16.66;100.00
8697;BME280;4385;48.848;8.924;2022-11-20T06:53:19;96835.00;;;16.69;100.00
8697;BME280;4385;48.848;8.924;2022-11-20T06:55:46;96836.66;;;16.70;100.00
8697;BME280;4385;48.848;8.924;2022-11-20T06:58:12;96838.25;;;16.74;100.00
8697;BME280;4385;48.848;8.924;2022-11-20T07:00:38;96845.81;;;16.77;100.00
8697;BME280;4385;48.848;8.924;2022-11-20T07:03:05;96837.19;;;16.83;100.00
8697;BME280;4385;48.848;8.924;2022-11-20T07:05:31;96843.91;;;16.86;100.00
8697;BME280;4385;48.848;8.924;2022-11-20T07:07:56;96832.84;;;16.87;100.00
8697;BME280;4385;48.848;8.924;2022-11-20T07:10:22;96837.91;;;16.88;100.00
8697;BME280;4385;48.848;8.924;2022-11-20T07:12:51;96848.88;;;16.90;100.00
8697;BME280;4385;48.848;8.924;2022-11-20T07:15:18;96842.97;;;16.88;100.00
8697;BME280;4385;48.848;8.924;2022-11-20T07:17:43;96848.84;;;16.92;100.00
8697;BME280;4385;48.848;8.924;2022-11-20T07:20:09;96847.94;;;16.93;100.00
8697;BME280;4385;48.848;8.924;2022-11-20T07:22:35;96854.72;;;16.94;100.00
8697;BME280;4385;48.848;8.924;2022-11-20T07:25:00;96854.78;;;16.92;100.00
8697;BME280;4385;48.848;8.924;2022-11-20T07:27:26;96851.38;;;16.92;100.00
8697;BME280;4385;48.848;8.924;2022-11-20T07:29:52;96851.38;;;16.92;100.00
8697;BME280;4385;48.848;8.924;2022-11-20T07:32:17;96853.00;;;16.94;100.00
8697;BME280;4385;48.848;8.924;2022-11-20T07:34:42;96860.59;;;16.96;100.00
8697;BME280;4385;48.848;8.924;2022-11-20T07:37:08;96868.16;;;16.99;100.00
8697;BME280;4385;48.848;8.924;2022-11-20T07:39:33;96866.44;;;17.00;100.00
8697;BME280;4385;48.848;8.924;2022-11-20T07:41:58;96863.03;;;17.01;100.00
8697;BME280;4385;48.848;8.924;2022-11-20T07:44:23;96864.66;;;17.03;100.00
8697;BME280;4385;48.848;8.924;2022-11-20T07:46:48;96865.41;;;17.08;100.00
8697;BME280;4385;48.848;8.924;2022-11-20T07:49:14;96867.00;;;17.13;100.00
8697;BME280;4385;48.848;8.924;2022-11-20T07:51:39;96868.59;;;17.17;100.00
8697;BME280;4385;48.848;8.924;2022-11-20T07:54:04;96865.91;;;17.22;100.00
8697;BME280;4385;48.848;8.924;2022-11-20T07:56:30;96870.84;;;17.28;100.00
8697;BME280;4385;48.848;8.924;2022-11-20T07:58:55;96875.72;;;17.36;100.00
8697;BME280;4385;48.848;8.924;2022-11-20T08:01:20;96876.53;;;17.38;100.00
8697;BME280;4385;48.848;8.924;2022-11-20T08:03:45;96870.59;;;17.37;100.00
8697;BME280;4385;48.848;8.924;2022-11-20T08:06:11;96864.66;;;17.37;100.00
8697;BME280;4385;48.848;8.924;2022-11-20T08:08:36;96874.84;;;17.37;100.00
8697;BME280;4385;48.848;8.924;2022-11-20T08:11:04;96874.84;;;17.37;100.00
8697;BME280;4385;48.848;8.924;2022-11-20T08:13:48;96885.88;;;17.37;100.00
8697;BME280;4385;48.848;8.924;2022-11-20T08:16:32;96883.28;;;17.39;100.00
8697;BME280;4385;48.848;8.924;2022-11-20T08:18:57;96884.94;;;17.40;100.00
8697;BME280;4385;48.848;8.924;2022-11-20T08:21:23;96886.63;;;17.41;100.00
8697;BME280;4385;48.848;8.924;2022-11-20T08:23:49;96893.47;;;17.39;100.00
8697;BME280;4385;48.848;8.924;2022-11-20T08:26:14;96889.25;;;17.38;100.00
8697;BME280;4385;48.848;8.924;2022-11-20T08:28:39;96888.44;;;17.36;100.00
8697;BME280;4385;48.848;8.924;2022-11-20T08:31:05;96882.50;;;17.35;100.00
8697;BME280;4385;48.848;8.924;2022-11-20T08:33:30;96874.91;;;17.33;100.00
8697;BME280;4385;48.848;8.924;2022-11-20T08:36:01;96878.31;;;17.34;100.00
8697;BME280;4385;48.848;8.924;2022-11-20T08:38:28;96886.75;;;17.36;100.00
8697;BME280;4385;48.848;8.924;2022-11-20T08:41:00;96893.47;;;17.39;100.00
8697;BME280;4385;48.848;8.924;2022-11-20T08:43:44;96894.25;;;17.41;100.00
8697;BME280;4385;48.848;8.924;2022-11-20T08:46:10;96900.09;;;17.44;100.00
8697;BME280;4385;48.848;8.924;2022-11-20T08:48:35;96902.59;;;17.46;100.00
8697;BME280;4385;48.848;8.924;2022-11-20T08:51:00;96910.97;;;17.51;100.00
8697;BME280;4385;48.848;8.924;2022-11-20T08:53:27;96906.56;;;17.56;100.00
8697;BME280;4385;48.848;8.924;2022-11-20T08:55:52;96914.31;;;17.53;100.00
8697;BME280;4385;48.848;8.924;2022-11-20T08:58:17;96913.50;;;17.51;100.00
8697;BME280;4385;48.848;8.924;2022-11-20T09:00:43;96912.00;;;17.44;100.00
8697;BME280;4385;48.848;8.924;2022-11-20T09:03:08;96910.41;;;17.40;100.00
8697;BME280;4385;48.848;8.924;2022-11-20T09:05:33;96913.84;;;17.39;100.00
8697;BME280;4385;48.848;8.924;2022-11-20T09:07:59;96911.28;;;17.39;100.00
8697;BME280;4385;48.848;8.924;2022-11-20T09:10:25;96916.38;;;17.39;100.00
8697;BME280;4385;48.848;8.924;2022-11-20T09:12:53;96917.19;;;17.41;100.00
8697;BME280;4385;48.848;8.924;2022-11-20T09:15:20;96920.50;;;17.43;100.00
8697;BME280;4385;48.848;8.924;2022-11-20T09:17:53;96923.84;;;17.45;100.00
8697;BME280;4385;48.848;8.924;2022-11-20T09:20:18;96927.22;;;17.47;100.00
8697;BME280;4385;48.848;8.924;2022-11-20T09:22:44;96921.22;;;17.48;100.00
8697;BME280;4385;48.848;8.924;2022-11-20T09:25:09;96928.84;;;17.50;100.00
8697;BME280;4385;48.848;8.924;2022-11-20T09:27:34;96931.38;;;17.50;100.00
8697;BME280;4385;48.848;8.924;2022-11-20T09:30:00;96927.13;;;17.50;100.00
8697;BME280;4385;48.848;8.924;2022-11-20T09:32:28;96929.72;;;17.49;100.00
8697;BME280;4385;48.848;8.924;2022-11-20T09:34:54;96931.41;;;17.48;100.00
8697;BME280;4385;48.848;8.924;2022-11-20T09:37:19;96928.91;;;17.47;100.00
8697;BME280;4385;48.848;8.924;2022-11-20T09:39:44;96932.31;;;17.47;100.00
8697;BME280;4385;48.848;8.924;2022-11-20T09:45:05;96935.53;;;17.52;100.00
8697;BME280;4385;48.848;8.924;2022-11-20T09:48:02;96943.91;;;17.57;100.00
8697;BME280;4385;48.848;8.924;2022-11-20T09:50:36;96934.47;;;17.61;100.00
8697;BME280;4385;48.848;8.924;2022-11-20T09:55:43;96944.47;;;17.69;100.00
8697;BME280;4385;48.848;8.924;2022-11-20T09:58:29;96943.47;;;17.73;100.00
8697;BME280;4385;48.848;8.924;2022-11-20T10:01:23;96945.91;;;17.78;100.00
8697;BME280;4385;48.848;8.924;2022-11-20T10:04:15;96954.34;;;17.80;100.00
8697;BME280;4385;48.848;8.924;2022-11-20T10:07:24;96958.50;;;17.82;100.00
8697;BME280;4385;48.848;8.924;2022-11-20T10:09:55;96956.84;;;17.81;100.00
8697;BME280;4385;48.848;8.924;2022-11-20T10:15:49;96953.41;;;17.82;100.00
8697;BME280;4385;48.848;8.924;2022-11-20T10:26:35;96953.41;;;17.82;100.00
8697;BME280;4385;48.848;8.924;2022-11-20T10:29:12;96944.16;;;17.80;100.00
8697;BME280;4385;48.848;8.924;2022-11-20T10:31:40;96949.25;;;17.80;100.00
8697;BME280;4385;48.848;8.924;2022-11-20T10:34:20;96946.66;;;17.81;100.00
8697;BME280;4385;48.848;8.924;2022-11-20T10:36:54;96950.88;;;17.82;100.00
8697;BME280;4385;48.848;8.924;2022-11-20T10:39:35;96943.13;;;17.86;100.00
8697;BME280;4385;48.848;8.924;2022-11-20T10:42:08;96938.84;;;17.88;100.00
8697;BME280;4385;48.848;8.924;2022-11-20T10:44:36;96936.19;;;17.91;100.00
8697;BME280;4385;48.848;8.924;2022-11-20T10:47:20;96941.22;;;17.94;100.00
8697;BME280;4385;48.848;8.924;2022-11-20T10:49:53;96934.34;;;17.96;100.00
8697;BME280;4385;48.848;8.924;2022-11-20T10:53:02;96936.78;;;17.99;100.00
8697;BME280;4385;48.848;8.924;2022-11-20T10:55:40;96938.50;;;18.00;100.00
8697;BME280;4385;48.848;8.924;2022-11-20T10:58:24;96939.25;;;18.02;100.00
8697;BME280;4385;48.848;8.924;2022-11-20T11:01:11;96933.31;;;18.03;100.00
8697;BME280;4385;48.848;8.924;2022-11-20T11:03:38;96929.81;;;18.06;100.00
8697;BME280;4385;48.848;8.924;2022-11-20T11:06:08;96932.31;;;18.07;100.00
8697;BME280;4385;48.848;8.924;2022-11-20T11:08:38;96923.78;;;18.08;100.00
8697;BME280;4385;48.848;8.924;2022-11-20T11:11:26;96915.28;;;18.10;100.00
8697;BME280;4385;48.848;8.924;2022-11-20T11:14:03;96920.31;;;18.13;100.00
8697;BME280;4385;48.848;8.924;2022-11-20T11:16:29;96905.00;;;18.13;100.00
8697;BME280;4385;48.848;8.924;2022-11-20T11:19:04;96898.22;;;18.12;100.00
8697;BME280;4385;48.848;8.924;2022-11-20T11:21:30;96899.06;;;18.12;100.00
8697;BME280;4385;48.848;8.924;2022-11-20T11:24:01;96893.13;;;18.12;100.00
8697;BME280;4385;48.848;8.924;2022-11-20T11:26:27;96896.47;;;18.14;100.00
8697;BME280;4385;48.848;8.924;2022-11-20T11:31:30;96884.66;;;18.11;100.00
8697;BME280;4385;48.848;8.924;2022-11-20T11:34:12;96882.13;;;18.11;100.00
8697;BME280;4385;48.848;8.924;2022-11-20T11:36:38;96878.63;;;18.14;100.00
8697;BME280;4385;48.848;8.924;2022-11-20T11:39:05;96870.13;;;18.13;100.00
8697;BME280;4385;48.848;8.924;2022-11-20T11:41:36;96855.69;;;18.14;100.00
8697;BME280;4385;48.848;8.924;2022-11-20T11:46:59;96860.41;;;18.26;100.00
8697;BME280;4385;48.848;8.924;2022-11-20T11:49:25;96855.94;;;18.33;100.00
8697;BME280;4385;48.848;8.924;2022-11-20T11:52:08;96850.66;;;18.39;100.00
8697;BME280;4385;48.848;8.924;2022-11-20T11:54:41;96843.66;;;18.44;100.00
8697;BME280;4385;48.848;8.924;2022-11-20T11:57:26;96844.31;;;18.51;100.00
8697;BME280;4385;48.848;8.924;2022-11-20T12:00:09;96845.84;;;18.55;100.00
8697;BME280;4385;48.848;8.924;2022-11-20T12:05:19;96841.41;;;18.62;100.00
8697;BME280;4385;48.848;8.924;2022-11-20T12:07:58;96854.00;;;18.67;100.00
8697;BME280;4385;48.848;8.924;2022-11-20T12:13:20;96832.69;;;18.68;100.00
8697;BME280;4385;48.848;8.924;2022-11-20T12:15:49;96852.25;;;19.44;100.00
8697;BME280;4385;48.848;8.924;2022-11-20T12:18:17;96844.38;;;19.50;100.00
8697;BME280;4385;48.848;8.924;2022-11-20T12:20:52;96840.97;;;19.50;100.00
8697;BME280;4385;48.848;8.924;2022-11-20T12:23:47;96840.06;;;19.51;100.00
8697;BME280;4385;48.848;8.924;2022-11-20T12:29:18;96836.03;;;19.45;100.00
8697;BME280;4385;48.848;8.924;2022-11-20T12:32:00;96825.94;;;19.42;100.00
8697;BME280;4385;48.848;8.924;2022-11-20T12:37:33;96843.03;;;19.40;100.00
8697;BME280;4385;48.848;8.924;2022-11-20T12:46:25;96849.16;;;19.36;100.00
8697;BME280;4385;48.848;8.924;2022-11-20T12:54:36;96840.69;;;19.34;100.00
8697;BME280;4385;48.848;8.924;2022-11-20T13:03:03;96839.81;;;19.35;100.00
8697;BME280;4385;48.848;8.924;2022-11-20T13:05:38;96832.91;;;19.37;100.00
8697;BME280;4385;48.848;8.924;2022-11-20T13:08:11;96834.59;;;19.38;100.00
8697;BME280;4385;48.848;8.924;2022-11-20T13:10:43;96834.53;;;19.39;100.00
8697;BME280;4385;48.848;8.924;2022-11-20T13:16:02;96837.03;;;19.41;100.00
8697;BME280;4385;48.848;8.924;2022-11-20T13:18:34;96837.81;;;19.43;100.00
8697;BME280;4385;48.848;8.924;2022-11-20T13:21:01;96825.13;;;19.40;100.00
8697;BME280;4385;48.848;8.924;2022-11-20T13:23:27;96822.59;;;19.40;100.00
8697;BME280;4385;48.848;8.924;2022-11-20T13:26:17;96816.72;;;19.38;100.00
8697;BME280;4385;48.848;8.924;2022-11-20T13:28:45;96804.06;;;19.35;100.00
8697;BME280;4385;48.848;8.924;2022-11-20T13:31:28;96811.06;;;19.29;100.00
8697;BME280;4385;48.848;8.924;2022-11-20T13:33:55;96805.16;;;19.27;100.00
8697;BME280;4385;48.848;8.924;2022-11-20T13:36:24;96818.03;;;19.24;100.00
8697;BME280;4385;48.848;8.924;2022-11-20T13:38:53;96814.88;;;19.17;100.00
8697;BME280;4385;48.848;8.924;2022-11-20T13:41:36;96817.59;;;19.13;100.00
8697;BME280;4385;48.848;8.924;2022-11-20T13:46:39;96814.31;;;19.09;100.00
8697;BME280;4385;48.848;8.924;2022-11-20T13:49:08;96827.22;;;19.04;100.00
8697;BME280;4385;48.848;8.924;2022-11-20T13:51:42;96830.66;;;19.03;100.00
8697;BME280;4385;48.848;8.924;2022-11-20T13:57:35;96808.88;;;18.93;100.00
8697;BME280;4385;48.848;8.924;2022-11-20T14:00:22;96801.34;;;18.90;100.00
8697;BME280;4385;48.848;8.924;2022-11-20T14:03:02;96800.50;;;18.89;100.00
8697;BME280;4385;48.848;8.924;2022-11-20T14:05:37;96798.28;;;18.80;100.00
8697;BME280;4385;48.848;8.924;2022-11-20T14:08:05;96801.66;;;18.80;100.00
8697;BME280;4385;48.848;8.924;2022-11-20T14:10:32;96802.53;;;18.79;100.00
8697;BME280;4385;48.848;8.924;2022-11-20T14:12:57;96806.81;;;18.79;100.00
8697;BME280;4385;48.848;8.924;2022-11-20T14:15:31;96797.50;;;18.78;100.00
8697;BME280;4385;48.848;8.924;2022-11-20T14:17:57;96796.44;;;18.84;100.00
8697;BME280;4385;48.848;8.924;2022-11-20T14:20:28;96800.56;;;18.88;100.00
8697;BME280;4385;48.848;8.924;2022-11-20T14:22:55;96792.00;;;18.89;100.00